createdAt,value
2023-05-25T00:01:02.540Z,9.21
2023-05-25T00:03:36.403Z,9.45
2023-05-25T00:06:07.414Z,9.58
2023-05-25T00:08:38.002Z,9.97
2023-05-25T00:11:08.712Z,10.31
2023-05-25T00:13:39.297Z,10.38
2023-05-25T00:16:10.614Z,10.60
2023-05-25T00:18:43.850Z,10.64
2023-05-25T00:21:14.473Z,10.72
2023-05-25T00:23:45.149Z,10.72
2023-05-25T00:26:15.825Z,10.92
2023-05-25T00:28:46.423Z,10.89
2023-05-25T00:31:16.980Z,10.87
2023-05-25T00:33:50.680Z,10.92
2023-05-25T00:36:21.491Z,10.94
2023-05-25T00:38:52.159Z,10.87
2023-05-25T00:41:23.374Z,10.79
2023-05-25T00:43:54.109Z,10.82
2023-05-25T00:46:25.938Z,10.57
2023-05-25T00:48:59.490Z,10.42
2023-05-25T00:51:33.080Z,10.53
2023-05-25T00:54:03.714Z,10.41
2023-05-25T00:56:35.831Z,10.35
2023-05-25T00:59:09.796Z,10.11
2023-05-25T01:01:44.983Z,10.11
2023-05-25T01:04:21.703Z,10.22
2023-05-25T01:06:54.617Z,10.20
2023-05-25T01:09:27.652Z,10.02
2023-05-25T01:12:00.407Z,9.89
2023-05-25T01:14:31.636Z,9.67
2023-05-25T01:17:03.400Z,9.53
2023-05-25T01:19:38.493Z,9.62
2023-05-25T01:22:18.026Z,9.46
2023-05-25T01:24:52.122Z,9.32
2023-05-25T01:27:30.825Z,9.47
2023-05-25T01:30:02.908Z,9.28
2023-05-25T01:32:35.569Z,9.28
2023-05-25T01:35:06.902Z,9.33
2023-05-25T01:37:47.938Z,9.17
2023-05-25T01:40:19.019Z,9.23
2023-05-25T01:42:49.683Z,9.14
2023-05-25T01:45:20.385Z,9.19
2023-05-25T01:48:00.450Z,9.03
2023-05-25T01:50:39.525Z,8.96
2023-05-25T01:53:19.005Z,8.89
2023-05-25T01:55:55.386Z,8.86
2023-05-25T01:58:27.381Z,8.77
2023-05-25T02:00:58.605Z,8.79
2023-05-25T02:03:29.546Z,8.81
2023-05-25T02:06:01.020Z,8.98
2023-05-25T02:08:34.618Z,9.21
2023-05-25T02:11:05.720Z,9.29
2023-05-25T02:13:36.471Z,9.18
2023-05-25T02:16:07.258Z,9.06
2023-05-25T02:18:37.866Z,9.15
2023-05-25T02:21:08.579Z,8.95
2023-05-25T02:23:42.513Z,8.95
2023-05-25T02:26:13.078Z,8.84
2023-05-25T02:28:43.669Z,8.76
2023-05-25T02:31:14.363Z,8.41
2023-05-25T02:33:45.062Z,8.61
2023-05-25T02:36:15.821Z,8.58
2023-05-25T02:38:50.134Z,8.47
2023-05-25T02:41:24.430Z,8.45
2023-05-25T02:43:55.075Z,8.42
2023-05-25T02:46:25.826Z,8.49
2023-05-25T02:48:57.287Z,8.40
2023-05-25T02:51:28.924Z,8.22
2023-05-25T02:54:04.369Z,8.35
2023-05-25T02:56:36.435Z,8.32
2023-05-25T02:59:09.236Z,8.27
2023-05-25T03:01:40.944Z,8.23
2023-05-25T03:04:11.848Z,8.22
2023-05-25T03:06:42.440Z,8.13
2023-05-25T03:09:20.397Z,8.16
2023-05-25T03:11:53.278Z,8.26
2023-05-25T03:14:25.085Z,8.21
2023-05-25T03:17:00.952Z,8.17
2023-05-25T03:19:32.509Z,8.08
2023-05-25T03:22:03.801Z,8.14
2023-05-25T03:24:41.695Z,8.16
2023-05-25T03:27:13.286Z,8.15
2023-05-25T03:29:43.921Z,8.16
2023-05-25T03:32:14.793Z,8.08
2023-05-25T03:34:45.821Z,8.12
2023-05-25T03:37:19.371Z,8.06
2023-05-25T03:39:52.697Z,8.05
2023-05-25T03:42:23.259Z,8.05
2023-05-25T03:44:54.141Z,8.17
2023-05-25T03:47:24.894Z,8.29
2023-05-25T03:49:55.908Z,8.44
2023-05-25T03:52:26.482Z,8.61
2023-05-25T03:55:01.826Z,8.69
2023-05-25T03:57:32.694Z,8.88
2023-05-25T04:00:03.271Z,9.03
2023-05-25T04:02:43.330Z,9.21
2023-05-25T04:05:14.026Z,9.34
2023-05-25T04:07:44.626Z,9.39
2023-05-25T04:10:18.494Z,9.61
2023-05-25T04:12:49.073Z,9.80
2023-05-25T04:15:21.444Z,9.85
2023-05-25T04:18:11.033Z,9.94
2023-05-25T04:20:41.961Z,10.15
2023-05-25T04:23:15.968Z,10.29
2023-05-25T04:25:51.390Z,10.43
2023-05-25T04:28:22.953Z,10.52
2023-05-25T04:30:59.685Z,10.79
2023-05-25T04:33:50.564Z,10.84
2023-05-25T04:36:28.472Z,11.02
2023-05-25T04:39:03.061Z,11.03
2023-05-25T04:41:37.891Z,11.34
2023-05-25T04:44:14.017Z,11.64
2023-05-25T04:46:53.976Z,11.76
2023-05-25T04:49:30.601Z,12.08
2023-05-25T04:52:01.152Z,12.36
2023-05-25T04:54:33.589Z,12.36
2023-05-25T04:57:09.204Z,12.53
2023-05-25T04:59:40.082Z,12.17
2023-05-25T05:02:11.188Z,12.34
2023-05-25T05:04:42.556Z,12.84
2023-05-25T05:07:13.416Z,12.83
2023-05-25T05:09:44.512Z,13.00
2023-05-25T05:12:18.646Z,13.30
2023-05-25T05:14:53.348Z,13.27
2023-05-25T05:17:24.968Z,13.49
2023-05-25T05:19:55.859Z,13.61
2023-05-25T05:22:27.443Z,14.14
2023-05-25T05:24:58.175Z,14.49
2023-05-25T05:27:31.585Z,14.94
2023-05-25T05:30:07.799Z,15.27
2023-05-25T05:32:38.498Z,15.90
2023-05-25T05:35:11.778Z,16.14
2023-05-25T05:37:47.096Z,16.45
2023-05-25T05:40:17.735Z,16.18
2023-05-25T05:42:51.072Z,15.88
2023-05-25T05:45:21.813Z,16.06
2023-05-25T05:47:52.553Z,16.01
2023-05-25T05:50:23.626Z,16.52
2023-05-25T05:52:55.304Z,16.65
2023-05-25T05:55:26.546Z,16.99
2023-05-25T05:58:00.047Z,17.65
2023-05-25T06:00:31.009Z,18.20
2023-05-25T06:03:01.739Z,18.57
2023-05-25T06:05:34.112Z,18.82
2023-05-25T06:08:06.040Z,18.87
2023-05-25T06:10:38.913Z,19.15
2023-05-25T06:13:12.210Z,19.67
2023-05-25T06:15:43.133Z,19.27
2023-05-25T06:18:18.862Z,18.31
2023-05-25T06:20:49.904Z,18.81
2023-05-25T06:23:20.952Z,18.29
2023-05-25T06:25:51.631Z,18.60
2023-05-25T06:28:24.817Z,18.60
2023-05-25T06:30:55.438Z,19.19
2023-05-25T06:33:26.597Z,19.51
2023-05-25T06:36:00.693Z,20.34
2023-05-25T06:38:32.481Z,20.84
2023-05-25T06:41:05.570Z,21.50
2023-05-25T06:43:39.704Z,20.40
2023-05-25T06:46:18.676Z,19.83
2023-05-25T06:48:49.576Z,19.20
2023-05-25T06:51:20.141Z,18.27
2023-05-25T06:53:50.683Z,17.74
2023-05-25T06:56:21.663Z,17.28
2023-05-25T06:58:55.043Z,17.68
2023-05-25T07:01:25.720Z,17.67
2023-05-25T07:03:56.354Z,17.89
2023-05-25T07:06:26.966Z,17.11
2023-05-25T07:08:58.117Z,17.41
2023-05-25T07:11:28.733Z,17.23
2023-05-25T07:14:01.905Z,16.70
2023-05-25T07:16:32.517Z,16.31
2023-05-25T07:19:03.053Z,15.86
2023-05-25T07:21:36.742Z,15.83
2023-05-25T07:24:07.916Z,15.75
2023-05-25T07:26:39.250Z,15.62
2023-05-25T07:29:12.730Z,15.81
2023-05-25T07:31:43.383Z,16.19
2023-05-25T07:34:13.976Z,16.53
2023-05-25T07:36:44.596Z,16.47
2023-05-25T07:39:15.220Z,16.81
2023-05-25T07:41:45.786Z,16.74
2023-05-25T07:44:18.906Z,17.21
2023-05-25T07:46:49.512Z,17.27
2023-05-25T07:49:20.195Z,17.65
2023-05-25T07:51:50.994Z,17.76
2023-05-25T07:54:21.682Z,18.27
2023-05-25T07:56:52.493Z,18.51
2023-05-25T07:59:25.711Z,18.92
2023-05-25T08:01:56.358Z,19.60
2023-05-25T08:04:27.051Z,20.24
2023-05-25T08:06:57.665Z,20.50
2023-05-25T08:09:28.326Z,20.22
2023-05-25T08:12:18.692Z,21.12
2023-05-25T08:14:52.157Z,22.68
2023-05-25T08:17:23.013Z,22.96
2023-05-25T08:19:53.830Z,23.14
2023-05-25T08:22:24.431Z,22.84
2023-05-25T08:24:54.991Z,23.59
2023-05-25T08:27:25.726Z,23.56
2023-05-25T08:29:58.893Z,23.83
2023-05-25T08:32:32.397Z,25.74
2023-05-25T08:35:03.474Z,26.34
2023-05-25T08:37:35.824Z,25.06
2023-05-25T08:40:08.074Z,25.64
2023-05-25T08:42:38.649Z,26.23
2023-05-25T08:45:26.434Z,27.68
2023-05-25T08:48:04.593Z,25.80
2023-05-25T08:50:36.655Z,25.13
2023-05-25T08:53:12.009Z,24.24
2023-05-25T08:55:45.375Z,24.28
2023-05-25T08:58:23.645Z,24.65
2023-05-25T09:01:01.481Z,23.51
2023-05-25T09:03:33.978Z,23.73
2023-05-25T09:06:04.774Z,24.77
2023-05-25T09:08:35.509Z,24.22
2023-05-25T09:11:07.712Z,21.92
2023-05-25T09:13:39.195Z,21.36
2023-05-25T09:16:12.785Z,22.74
2023-05-25T09:18:43.422Z,23.75
2023-05-25T09:21:14.025Z,24.06
2023-05-25T09:23:44.949Z,23.35
2023-05-25T09:26:15.625Z,22.26
2023-05-25T09:28:49.571Z,22.60
2023-05-25T09:31:26.613Z,22.79
2023-05-25T09:34:00.519Z,23.88
2023-05-25T09:36:32.477Z,25.19
2023-05-25T09:39:04.028Z,25.86
2023-05-25T09:41:34.886Z,26.12
2023-05-25T09:44:11.502Z,25.18
2023-05-25T09:46:45.449Z,24.59
2023-05-25T09:49:16.512Z,24.44
2023-05-25T09:51:47.186Z,25.32
2023-05-25T09:54:17.915Z,26.28
2023-05-25T09:56:49.055Z,26.63
2023-05-25T09:59:19.815Z,27.62
2023-05-25T10:01:55.325Z,26.92
2023-05-25T10:04:25.984Z,27.48
2023-05-25T10:06:58.791Z,27.51
2023-05-25T10:09:32.811Z,27.75
2023-05-25T10:12:04.916Z,27.14
2023-05-25T10:14:38.697Z,28.14
2023-05-25T10:17:14.443Z,26.78
2023-05-25T10:19:52.406Z,27.14
2023-05-25T10:22:26.288Z,26.31
2023-05-25T10:25:00.013Z,26.11
2023-05-25T10:27:37.229Z,25.25
2023-05-25T10:30:09.398Z,25.79
2023-05-25T10:32:44.176Z,26.77
2023-05-25T10:35:16.821Z,26.98
2023-05-25T10:37:47.916Z,27.04
2023-05-25T10:40:19.635Z,27.06
2023-05-25T10:42:50.584Z,27.62
2023-05-25T10:45:21.933Z,27.33
2023-05-25T10:47:55.739Z,27.34
2023-05-25T10:50:27.959Z,26.92
2023-05-25T10:53:02.954Z,27.84
2023-05-25T10:55:44.987Z,28.91
2023-05-25T10:58:16.771Z,29.92
2023-05-25T11:01:00.284Z,28.55
2023-05-25T11:03:57.371Z,27.38
2023-05-25T11:07:03.027Z,26.58
2023-05-25T11:09:36.124Z,26.63
2023-05-25T11:12:07.640Z,25.97
2023-05-25T11:14:42.427Z,26.02
2023-05-25T11:17:15.669Z,26.31
2023-05-25T11:19:53.278Z,26.62
2023-05-25T11:22:33.284Z,25.39
2023-05-25T11:25:05.317Z,25.06
2023-05-25T11:27:48.125Z,25.73
2023-05-25T11:30:21.468Z,26.25
2023-05-25T11:32:52.998Z,26.36
2023-05-25T11:35:29.006Z,27.14
2023-05-25T11:38:00.769Z,27.12
2023-05-25T11:40:34.428Z,28.20
2023-05-25T11:43:06.564Z,28.71
2023-05-25T11:45:38.469Z,28.91
2023-05-25T11:48:09.479Z,27.63
2023-05-25T11:50:42.789Z,27.74
2023-05-25T11:53:13.823Z,28.78
2023-05-25T11:55:44.427Z,29.33
2023-05-25T11:58:14.942Z,29.81
2023-05-25T12:00:45.658Z,29.80
2023-05-25T12:03:32.811Z,27.63
2023-05-25T12:06:06.170Z,27.81
2023-05-25T12:08:36.887Z,27.69
2023-05-25T12:11:07.901Z,27.38
2023-05-25T12:13:38.721Z,27.61
2023-05-25T12:16:10.120Z,26.92
2023-05-25T12:18:40.821Z,26.66
2023-05-25T12:21:14.207Z,26.78
2023-05-25T12:23:45.112Z,26.68
2023-05-25T12:26:17.171Z,26.72
2023-05-25T12:29:02.264Z,27.05
2023-05-25T12:31:34.537Z,27.45
2023-05-25T12:34:12.683Z,27.70
2023-05-25T12:36:49.122Z,29.59
2023-05-25T12:39:35.203Z,31.97
2023-05-25T12:42:06.869Z,30.86
2023-05-25T12:44:39.275Z,29.64
2023-05-25T12:47:19.949Z,27.15
2023-05-25T12:49:53.231Z,26.76
2023-05-25T12:52:39.886Z,26.65
2023-05-25T12:55:30.561Z,26.88
2023-05-25T12:58:02.382Z,27.05
2023-05-25T13:00:36.372Z,27.09
2023-05-25T13:03:08.300Z,27.03
2023-05-25T13:05:40.463Z,28.33
2023-05-25T13:08:13.858Z,28.19
2023-05-25T13:10:48.751Z,27.25
2023-05-25T13:13:19.480Z,27.18
2023-05-25T13:15:50.059Z,26.81
2023-05-25T13:18:20.745Z,27.49
2023-05-25T13:20:55.216Z,27.45
2023-05-25T13:23:29.973Z,26.70
2023-05-25T13:26:00.763Z,25.26
2023-05-25T13:28:32.137Z,25.74
2023-05-25T13:31:02.874Z,25.80
2023-05-25T13:33:33.530Z,26.23
2023-05-25T13:36:10.730Z,25.88
2023-05-25T13:38:45.303Z,25.02
2023-05-25T13:41:16.671Z,27.03
2023-05-25T13:43:47.402Z,29.00
2023-05-25T13:46:33.573Z,28.47
2023-05-25T13:49:05.885Z,27.74
2023-05-25T13:51:38.462Z,28.16
2023-05-25T13:54:13.218Z,27.94
2023-05-25T13:56:44.867Z,28.07
2023-05-25T13:59:15.930Z,28.17
2023-05-25T14:01:46.850Z,29.46
2023-05-25T14:04:18.967Z,29.59
2023-05-25T14:06:50.313Z,29.05
2023-05-25T14:09:23.693Z,29.33
2023-05-25T14:12:00.728Z,29.45
2023-05-25T14:14:38.926Z,28.85
2023-05-25T14:17:18.111Z,28.45
2023-05-25T14:19:51.334Z,27.83
2023-05-25T14:22:23.532Z,28.42
2023-05-25T14:25:00.427Z,27.92
2023-05-25T14:27:32.443Z,27.53
2023-05-25T14:30:08.627Z,26.86
2023-05-25T14:32:39.616Z,27.15
2023-05-25T14:35:13.931Z,27.95
2023-05-25T14:37:54.893Z,29.32
2023-05-25T14:40:41.179Z,30.18
2023-05-25T14:43:14.732Z,30.26
2023-05-25T14:45:48.049Z,28.36
2023-05-25T14:48:30.972Z,27.66
2023-05-25T14:51:02.966Z,26.06
2023-05-25T14:53:36.696Z,25.78
2023-05-25T14:56:11.264Z,26.05
2023-05-25T14:58:42.142Z,26.82
2023-05-25T15:01:19.190Z,26.72
2023-05-25T15:03:49.949Z,27.63
2023-05-25T15:06:23.222Z,26.15
2023-05-25T15:08:58.158Z,27.44
2023-05-25T15:11:36.252Z,26.86
2023-05-25T15:14:12.443Z,26.74
2023-05-25T15:16:43.317Z,26.52
2023-05-25T15:19:16.782Z,25.97
2023-05-25T15:21:48.481Z,26.13
2023-05-25T15:24:19.800Z,26.79
2023-05-25T15:26:53.209Z,27.01
2023-05-25T15:29:23.845Z,28.34
2023-05-25T15:31:55.750Z,29.39
2023-05-25T15:34:26.404Z,30.47
2023-05-25T15:36:57.270Z,30.04
2023-05-25T15:39:27.940Z,28.70
2023-05-25T15:42:01.733Z,29.46
2023-05-25T15:44:33.276Z,30.15
2023-05-25T15:47:03.898Z,29.68
2023-05-25T15:49:37.194Z,30.02
2023-05-25T15:52:09.039Z,29.66
2023-05-25T15:54:39.984Z,28.88
2023-05-25T15:57:13.296Z,30.14
2023-05-25T15:59:43.847Z,29.77
2023-05-25T16:02:14.747Z,30.60
2023-05-25T16:04:45.369Z,30.55
2023-05-25T16:07:16.057Z,29.18
2023-05-25T16:09:46.907Z,29.40
2023-05-25T16:12:24.818Z,29.95
2023-05-25T16:14:55.679Z,30.00
2023-05-25T16:17:26.675Z,28.67
2023-05-25T16:19:57.500Z,29.83
2023-05-25T16:22:28.187Z,30.86
2023-05-25T16:24:59.091Z,29.48
2023-05-25T16:27:33.404Z,29.74
2023-05-25T16:30:04.269Z,30.24
2023-05-25T16:32:35.195Z,28.50
2023-05-25T16:35:06.263Z,28.93
2023-05-25T16:37:37.100Z,29.47
2023-05-25T16:40:08.455Z,30.05
2023-05-25T16:42:41.774Z,30.36
2023-05-25T16:45:13.545Z,30.84
2023-05-25T16:47:44.290Z,31.38
2023-05-25T16:50:15.375Z,30.88
2023-05-25T16:52:45.917Z,29.86
2023-05-25T16:55:16.623Z,29.15
2023-05-25T16:57:50.241Z,28.65
2023-05-25T17:00:21.628Z,29.82
2023-05-25T17:02:52.418Z,28.81
2023-05-25T17:05:23.225Z,27.69
2023-05-25T17:07:53.844Z,27.30
2023-05-25T17:10:24.765Z,26.77
2023-05-25T17:12:58.217Z,26.60
2023-05-25T17:15:28.894Z,27.50
2023-05-25T17:17:59.565Z,28.54
2023-05-25T17:20:30.251Z,27.66
2023-05-25T17:23:01.348Z,25.81
2023-05-25T17:25:34.006Z,26.16
2023-05-25T17:28:07.627Z,25.57
2023-05-25T17:30:38.525Z,26.23
2023-05-25T17:33:09.260Z,27.10
2023-05-25T17:35:39.914Z,26.65
2023-05-25T17:38:10.999Z,26.59
2023-05-25T17:40:42.005Z,26.68
2023-05-25T17:43:15.277Z,26.17
2023-05-25T17:45:46.666Z,26.44
2023-05-25T17:48:18.055Z,25.27
2023-05-25T17:50:49.150Z,25.51
2023-05-25T17:53:19.787Z,24.50
2023-05-25T17:55:50.813Z,25.34
2023-05-25T17:58:24.174Z,26.16
2023-05-25T18:00:54.956Z,26.28
2023-05-25T18:03:26.158Z,26.19
2023-05-25T18:05:57.017Z,25.78
2023-05-25T18:08:27.622Z,25.08
2023-05-25T18:10:58.799Z,24.25
2023-05-25T18:13:32.107Z,24.67
2023-05-25T18:16:03.018Z,24.66
2023-05-25T18:18:33.764Z,24.74
2023-05-25T18:21:04.388Z,23.80
2023-05-25T18:23:35.342Z,24.12
2023-05-25T18:26:06.875Z,23.79
2023-05-25T18:28:42.622Z,23.42
2023-05-25T18:31:13.220Z,23.71
2023-05-25T18:33:43.815Z,22.97
2023-05-25T18:36:14.427Z,21.88
2023-05-25T18:38:44.958Z,21.14
2023-05-25T18:41:15.662Z,20.65
2023-05-25T18:43:49.693Z,20.51
2023-05-25T18:46:20.878Z,20.15
2023-05-25T18:48:51.574Z,19.88
2023-05-25T18:51:23.374Z,19.78
2023-05-25T18:53:54.693Z,19.70
2023-05-25T18:56:26.212Z,19.40
2023-05-25T18:58:59.487Z,19.33
2023-05-25T19:01:32.975Z,19.23
2023-05-25T19:04:04.036Z,18.92
2023-05-25T19:06:36.369Z,18.79
2023-05-25T19:09:07.081Z,18.58
2023-05-25T19:11:38.050Z,18.53
2023-05-25T19:14:11.407Z,18.45
2023-05-25T19:16:42.246Z,18.39
2023-05-25T19:19:13.058Z,18.18
2023-05-25T19:21:43.756Z,18.13
2023-05-25T19:24:14.522Z,17.93
2023-05-25T19:26:46.366Z,17.91
2023-05-25T19:29:23.454Z,17.77
2023-05-25T19:31:54.209Z,17.70
2023-05-25T19:34:25.169Z,17.49
2023-05-25T19:37:10.190Z,17.43
2023-05-25T19:39:41.299Z,17.27
2023-05-25T19:42:12.045Z,17.25
2023-05-25T19:44:46.576Z,17.12
2023-05-25T19:47:17.351Z,17.05
2023-05-25T19:49:48.092Z,17.01
2023-05-25T19:52:20.567Z,16.80
2023-05-25T19:54:51.352Z,16.67
2023-05-25T19:57:22.286Z,16.58
2023-05-25T19:59:55.753Z,16.48
2023-05-25T20:02:26.571Z,16.46
2023-05-25T20:04:57.252Z,16.43
2023-05-25T20:07:28.192Z,16.41
2023-05-25T20:09:58.993Z,16.42
2023-05-25T20:12:29.801Z,16.40
2023-05-25T20:15:03.477Z,16.34
2023-05-25T20:17:34.120Z,16.27
2023-05-25T20:20:05.369Z,16.22
2023-05-25T20:22:36.403Z,16.11
2023-05-25T20:25:07.263Z,16.15
2023-05-25T20:27:37.872Z,16.15
2023-05-25T20:30:13.870Z,16.11
2023-05-25T20:32:46.478Z,16.09
2023-05-25T20:35:18.746Z,16.06
2023-05-25T20:37:49.344Z,16.01
2023-05-25T20:40:20.018Z,15.93
2023-05-25T20:42:51.117Z,15.86
2023-05-25T20:45:24.869Z,15.77
2023-05-25T20:48:04.309Z,15.67
2023-05-25T20:50:35.156Z,15.63
2023-05-25T20:53:05.907Z,15.71
2023-05-25T20:55:36.498Z,15.84
2023-05-25T20:58:07.083Z,15.75
2023-05-25T21:00:40.688Z,15.62
2023-05-25T21:03:11.420Z,15.75
2023-05-25T21:05:42.257Z,15.84
2023-05-25T21:08:12.846Z,15.63
2023-05-25T21:10:43.492Z,15.59
2023-05-25T21:13:14.948Z,15.57
2023-05-25T21:15:48.322Z,15.48
2023-05-25T21:18:19.134Z,15.45
2023-05-25T21:20:52.486Z,15.31
2023-05-25T21:23:23.342Z,15.19
2023-05-25T21:25:54.170Z,15.10
2023-05-25T21:28:24.724Z,15.06
2023-05-25T21:30:57.939Z,14.97
2023-05-25T21:33:29.487Z,14.86
2023-05-25T21:36:00.228Z,14.87
2023-05-25T21:38:30.951Z,14.87
2023-05-25T21:41:01.799Z,14.92
2023-05-25T21:43:32.683Z,14.90
2023-05-25T21:46:06.345Z,14.80
2023-05-25T21:48:37.114Z,14.78
2023-05-25T21:51:07.976Z,14.74
2023-05-25T21:53:38.535Z,14.79
2023-05-25T21:56:09.114Z,14.65
2023-05-25T21:58:40.062Z,14.70
2023-05-25T22:01:13.577Z,14.60
2023-05-25T22:03:44.384Z,14.55
2023-05-25T22:06:14.981Z,14.42
2023-05-25T22:08:45.838Z,14.47
2023-05-25T22:11:16.731Z,14.44
2023-05-25T22:13:47.399Z,14.30
2023-05-25T22:16:20.986Z,14.26
2023-05-25T22:18:51.743Z,14.30
2023-05-25T22:21:22.591Z,14.23
2023-05-25T22:23:53.130Z,14.09
2023-05-25T22:26:23.860Z,14.01
2023-05-25T22:28:54.533Z,13.83
2023-05-25T22:31:28.442Z,13.79
2023-05-25T22:33:59.227Z,13.70
2023-05-25T22:36:29.884Z,13.64
2023-05-25T22:39:00.962Z,13.63
2023-05-25T22:41:32.027Z,13.51
2023-05-25T22:44:02.787Z,13.46
2023-05-25T22:46:36.147Z,13.37
2023-05-25T22:49:07.006Z,13.33
2023-05-25T22:51:37.714Z,13.27
2023-05-25T22:54:08.385Z,13.25
2023-05-25T22:56:39.226Z,13.24
2023-05-25T22:59:09.961Z,13.15
2023-05-25T23:01:43.427Z,13.16
2023-05-25T23:04:14.316Z,12.96
2023-05-25T23:06:45.291Z,12.92
2023-05-25T23:09:16.222Z,13.04
2023-05-25T23:11:47.321Z,12.99
2023-05-25T23:14:17.932Z,12.90
2023-05-25T23:16:51.311Z,12.82
2023-05-25T23:19:23.536Z,12.76
2023-05-25T23:21:54.627Z,12.79
2023-05-25T23:24:26.319Z,12.85
2023-05-25T23:26:57.173Z,12.90
2023-05-25T23:29:28.287Z,12.98
2023-05-25T23:32:01.800Z,13.08
2023-05-25T23:34:32.594Z,13.09
2023-05-25T23:37:06.327Z,13.14
2023-05-25T23:39:37.806Z,13.27
2023-05-25T23:42:08.811Z,13.34
2023-05-25T23:44:39.558Z,13.27
2023-05-25T23:47:13.294Z,13.27
2023-05-25T23:49:44.503Z,13.17
2023-05-25T23:52:15.733Z,13.17
2023-05-25T23:54:46.414Z,13.16
2023-05-25T23:57:18.000Z,13.08
2023-05-25T23:59:48.604Z,13.00
